createdAt,value
2023-04-01T00:01:49.608Z,11.12
2023-04-01T00:04:19.631Z,11.11
2023-04-01T00:06:49.487Z,11.10
2023-04-01T00:09:20.092Z,11.09
2023-04-01T00:11:50.014Z,11.07
2023-04-01T00:14:19.866Z,11.07
2023-04-01T00:16:53.665Z,11.07
2023-04-01T00:19:23.503Z,11.07
2023-04-01T00:21:53.446Z,11.05
2023-04-01T00:24:23.258Z,11.07
2023-04-01T00:26:53.057Z,11.05
2023-04-01T00:29:22.935Z,11.06
2023-04-01T00:31:55.393Z,11.05
2023-04-01T00:34:25.250Z,11.03
2023-04-01T00:36:55.510Z,11.01
2023-04-01T00:39:25.489Z,11.02
2023-04-01T00:41:55.313Z,11.00
2023-04-01T00:44:28.043Z,10.99
2023-04-01T00:47:00.762Z,10.99
2023-04-01T00:49:35.014Z,10.98
2023-04-01T00:52:07.064Z,10.98
2023-04-01T00:54:38.488Z,10.97
2023-04-01T00:57:12.333Z,10.97
2023-04-01T00:59:48.587Z,10.96
2023-04-01T01:02:24.196Z,10.96
2023-04-01T01:04:54.114Z,10.95
2023-04-01T01:07:32.111Z,10.94
2023-04-01T01:10:08.036Z,10.93
2023-04-01T01:12:44.143Z,10.91
2023-04-01T01:15:24.307Z,10.91
2023-04-01T01:18:05.428Z,10.94
2023-04-01T01:20:49.690Z,10.89
2023-04-01T01:24:06.406Z,10.90
2023-04-01T01:26:55.088Z,10.89
2023-04-01T01:29:46.294Z,10.89
2023-04-01T01:32:29.998Z,10.87
2023-04-01T01:35:15.314Z,10.86
2023-04-01T01:37:47.627Z,10.86
2023-04-01T01:40:19.613Z,10.81
2023-04-01T01:42:52.493Z,10.81
2023-04-01T01:45:25.672Z,10.81
2023-04-01T01:47:56.430Z,10.80
2023-04-01T01:50:30.508Z,10.79
2023-04-01T01:53:07.988Z,10.78
2023-04-01T01:55:43.817Z,10.76
2023-04-01T01:58:20.520Z,10.76
2023-04-01T02:00:54.769Z,10.74
2023-04-01T02:03:27.003Z,10.73
2023-04-01T02:06:02.121Z,10.71
2023-04-01T02:08:38.475Z,10.71
2023-04-01T02:11:11.015Z,10.67
2023-04-01T02:13:47.011Z,10.65
2023-04-01T02:16:22.260Z,10.65
2023-04-01T02:18:55.778Z,10.65
2023-04-01T02:21:32.409Z,10.64
2023-04-01T02:24:04.856Z,10.64
2023-04-01T02:26:37.120Z,10.65
2023-04-01T02:29:09.519Z,10.67
2023-04-01T02:31:40.269Z,10.68
2023-04-01T02:34:10.447Z,10.70
2023-04-01T02:36:42.921Z,10.70
2023-04-01T02:39:13.361Z,10.72
2023-04-01T02:41:43.877Z,10.74
2023-04-01T02:44:15.110Z,10.76
2023-04-01T02:46:45.106Z,10.76
2023-04-01T02:49:15.531Z,10.77
2023-04-01T02:51:48.025Z,10.77
2023-04-01T02:54:17.888Z,10.78
2023-04-01T02:56:51.133Z,10.77
2023-04-01T02:59:21.055Z,10.76
2023-04-01T03:01:50.866Z,10.76
2023-04-01T03:04:22.417Z,10.75
2023-04-01T03:06:55.101Z,10.74
2023-04-01T03:09:25.023Z,10.74
2023-04-01T03:11:54.832Z,10.73
2023-04-01T03:14:24.730Z,10.71
2023-04-01T03:16:54.751Z,10.70
2023-04-01T03:19:24.711Z,10.70
2023-04-01T03:21:57.197Z,10.70
2023-04-01T03:24:27.026Z,10.69
2023-04-01T03:26:56.853Z,10.69
2023-04-01T03:29:26.770Z,10.66
2023-04-01T03:31:59.027Z,10.67
2023-04-01T03:34:28.950Z,10.68
2023-04-01T03:37:03.326Z,10.67
2023-04-01T03:39:33.146Z,10.66
2023-04-01T03:42:03.323Z,10.67
2023-04-01T03:44:34.944Z,10.67
2023-04-01T03:47:04.772Z,10.68
2023-04-01T03:49:34.541Z,10.67
2023-04-01T03:52:07.245Z,10.67
2023-04-01T03:54:37.600Z,10.66
2023-04-01T03:57:10.337Z,10.67
2023-04-01T03:59:40.393Z,10.65
2023-04-01T04:02:10.238Z,10.65
2023-04-01T04:04:40.181Z,10.66
2023-04-01T04:07:12.669Z,10.65
2023-04-01T04:09:42.490Z,10.64
2023-04-01T04:12:13.350Z,10.63
2023-04-01T04:14:43.146Z,10.61
2023-04-01T04:17:17.430Z,10.61
2023-04-01T04:19:47.556Z,10.59
2023-04-01T04:22:24.356Z,10.61
2023-04-01T04:24:54.160Z,10.60
2023-04-01T04:27:24.116Z,10.59
2023-04-01T04:29:53.960Z,10.58
2023-04-01T04:32:23.943Z,10.52
2023-04-01T04:34:53.746Z,10.52
2023-04-01T04:37:26.984Z,10.53
2023-04-01T04:39:56.882Z,10.51
2023-04-01T04:42:29.766Z,10.51
2023-04-01T04:44:59.653Z,10.50
2023-04-01T04:47:29.587Z,10.50
2023-04-01T04:49:59.399Z,10.49
2023-04-01T04:52:31.922Z,10.46
2023-04-01T04:55:01.759Z,10.44
2023-04-01T04:57:33.207Z,10.40
2023-04-01T05:00:03.078Z,10.40
2023-04-01T05:02:34.861Z,10.40
2023-04-01T05:05:05.376Z,10.41
2023-04-01T05:07:38.185Z,10.43
2023-04-01T05:10:09.040Z,10.40
2023-04-01T05:12:40.049Z,10.37
2023-04-01T05:15:11.478Z,10.35
2023-04-01T05:17:41.436Z,10.39
2023-04-01T05:20:12.091Z,10.39
2023-04-01T05:22:44.544Z,10.41
2023-04-01T05:25:14.364Z,10.39
2023-04-01T05:27:44.210Z,10.40
2023-04-01T05:30:15.691Z,10.35
2023-04-01T05:32:45.964Z,10.33
2023-04-01T05:35:15.808Z,10.32
2023-04-01T05:37:48.303Z,10.34
2023-04-01T05:40:18.326Z,10.35
2023-04-01T05:42:48.190Z,10.38
2023-04-01T05:45:18.852Z,10.35
2023-04-01T05:47:48.759Z,10.35
2023-04-01T05:50:19.121Z,10.32
2023-04-01T05:52:53.838Z,10.34
2023-04-01T05:55:23.650Z,10.35
2023-04-01T05:57:54.669Z,10.34
2023-04-01T06:00:24.657Z,10.33
2023-04-01T06:02:57.352Z,10.34
2023-04-01T06:05:29.117Z,10.38
2023-04-01T06:08:04.858Z,10.36
2023-04-01T06:10:45.825Z,10.37
2023-04-01T06:13:27.745Z,10.38
2023-04-01T06:22:34.812Z,10.38
2023-04-01T06:25:22.185Z,10.39
2023-04-01T06:28:08.876Z,10.41
2023-04-01T06:30:44.807Z,10.45
2023-04-01T06:33:36.227Z,10.47
2023-04-01T06:36:32.192Z,10.51
2023-04-01T06:39:23.619Z,10.53
2023-04-01T06:42:23.705Z,10.56
2023-04-01T06:45:19.119Z,10.59
2023-04-01T06:48:08.003Z,10.64
2023-04-01T06:50:43.582Z,10.69
2023-04-01T06:53:20.572Z,10.74
2023-04-01T06:55:53.189Z,10.79
2023-04-01T06:58:29.423Z,10.87
2023-04-01T07:01:03.482Z,10.91
2023-04-01T07:03:37.467Z,10.93
2023-04-01T07:06:10.117Z,10.92
2023-04-01T07:08:49.646Z,10.93
2023-04-01T07:11:28.521Z,10.92
2023-04-01T07:14:05.492Z,10.90
2023-04-01T07:16:39.249Z,10.78
2023-04-01T07:19:17.382Z,10.66
2023-04-01T07:21:52.565Z,10.63
2023-04-01T07:24:29.648Z,10.60
2023-04-01T07:27:01.365Z,10.55
2023-04-01T07:29:33.834Z,10.59
2023-04-01T07:32:17.812Z,10.57
2023-04-01T07:35:09.376Z,10.62
2023-04-01T07:37:46.620Z,10.60
2023-04-01T07:40:27.271Z,10.56
2023-04-01T07:43:23.582Z,10.52
2023-04-01T07:46:02.018Z,10.52
2023-04-01T07:48:37.234Z,10.53
2023-04-01T07:51:17.126Z,10.59
2023-04-01T07:53:53.709Z,10.58
2023-04-01T07:56:31.658Z,10.56
2023-04-01T07:59:11.419Z,10.54
2023-04-01T08:01:51.606Z,10.58
2023-04-01T08:04:39.486Z,10.61
2023-04-01T08:07:15.649Z,10.60
2023-04-01T08:09:56.108Z,10.58
2023-04-01T08:12:36.284Z,10.47
2023-04-01T08:15:17.602Z,10.46
2023-04-01T08:18:04.157Z,10.43
2023-04-01T08:20:41.440Z,10.43
2023-04-01T08:23:18.987Z,10.42
2023-04-01T08:25:55.785Z,10.45
2023-04-01T08:28:32.084Z,10.39
2023-04-01T08:31:07.309Z,10.33
2023-04-01T08:33:40.897Z,10.25
2023-04-01T08:36:14.634Z,10.23
2023-04-01T08:38:48.949Z,10.21
2023-04-01T08:41:59.146Z,10.26
2023-04-01T08:44:43.627Z,10.29
2023-04-01T08:47:33.813Z,10.38
2023-04-01T08:50:35.379Z,10.46
2023-04-01T08:53:16.723Z,10.49
2023-04-01T08:56:04.536Z,10.49
2023-04-01T08:58:52.497Z,10.45
2023-04-01T09:01:36.022Z,10.33
2023-04-01T09:04:36.761Z,10.32
2023-04-01T09:07:29.757Z,10.29
2023-04-01T09:10:32.144Z,10.14
2023-04-01T09:13:18.791Z,10.09
2023-04-01T09:16:10.154Z,10.05
2023-04-01T09:19:01.384Z,10.08
2023-04-01T09:22:01.998Z,10.10
2023-04-01T09:24:56.356Z,10.14
2023-04-01T09:27:37.229Z,10.11
2023-04-01T09:30:32.582Z,10.07
2023-04-01T09:33:27.815Z,10.07
2023-04-01T09:36:08.746Z,10.05
2023-04-01T09:38:53.802Z,10.09
2023-04-01T09:41:33.587Z,10.10
2023-04-01T09:44:06.653Z,10.12
2023-04-01T09:46:52.637Z,10.10
2023-04-01T09:49:47.696Z,10.10
2023-04-01T09:52:29.080Z,10.02
2023-04-01T09:55:28.048Z,9.97
2023-04-01T09:58:34.208Z,9.96
2023-04-01T10:01:57.443Z,9.94
2023-04-01T10:04:58.639Z,9.80
2023-04-01T10:08:07.223Z,9.74
2023-04-01T10:11:03.257Z,9.73
2023-04-01T10:14:17.568Z,9.67
2023-04-01T10:17:26.784Z,9.62
2023-04-01T10:20:31.258Z,9.52
2023-04-01T10:23:19.377Z,9.50
2023-04-01T10:26:22.724Z,9.53
2023-04-01T10:29:11.887Z,9.54
2023-04-01T10:32:21.957Z,9.49
2023-04-01T10:35:32.517Z,9.43
2023-04-01T10:38:31.617Z,9.43
2023-04-01T10:41:26.065Z,9.45
2023-04-01T10:44:26.971Z,9.50
2023-04-01T10:47:30.577Z,9.58
2023-04-01T10:50:20.288Z,9.60
2023-04-01T10:53:29.438Z,9.59
2023-04-01T10:56:27.398Z,9.61
2023-04-01T10:59:37.222Z,9.62
2023-04-01T11:02:37.106Z,9.66
2023-04-01T11:05:44.041Z,9.60
2023-04-01T11:08:55.456Z,9.64
2023-04-01T11:11:50.007Z,9.62
2023-04-01T11:14:48.692Z,9.59
2023-04-01T11:17:48.674Z,9.62
2023-04-01T11:20:46.563Z,9.62
2023-04-01T11:23:33.530Z,9.58
2023-04-01T11:26:13.594Z,9.56
2023-04-01T11:29:13.719Z,9.58
2023-04-01T11:31:59.161Z,9.67
2023-04-01T11:34:47.196Z,9.74
2023-04-01T11:37:31.147Z,9.76
2023-04-01T11:40:12.470Z,9.76
2023-04-01T11:42:53.649Z,9.77
2023-04-01T11:45:36.476Z,9.77
2023-04-01T11:48:36.873Z,9.71
2023-04-01T11:51:26.272Z,9.69
2023-04-01T11:54:07.781Z,9.74
2023-04-01T11:56:55.081Z,9.74
2023-04-01T11:59:48.284Z,9.75
2023-04-01T12:02:26.968Z,9.81
2023-04-01T12:05:18.842Z,9.87
2023-04-01T12:08:14.379Z,9.87
2023-04-01T12:10:57.233Z,9.88
2023-04-01T12:13:42.454Z,9.85
2023-04-01T12:16:28.318Z,9.82
2023-04-01T12:19:05.152Z,9.80
2023-04-01T12:21:40.693Z,9.73
2023-04-01T12:24:48.818Z,9.67
2023-04-01T12:27:48.032Z,9.61
2023-04-01T12:30:51.653Z,9.63
2023-04-01T12:33:44.513Z,9.66
2023-04-01T12:36:24.992Z,9.64
2023-04-01T12:39:13.139Z,9.60
2023-04-01T12:41:49.635Z,9.61
2023-04-01T12:44:45.998Z,9.63
2023-04-01T12:47:59.957Z,9.65
2023-04-01T12:50:38.723Z,9.67
2023-04-01T12:53:29.062Z,9.62
2023-04-01T12:56:00.920Z,9.51
2023-04-01T12:59:21.613Z,9.48
2023-04-01T13:02:10.486Z,9.41
2023-04-01T13:04:55.344Z,9.36
2023-04-01T13:07:43.819Z,9.35
2023-04-01T13:10:24.212Z,9.38
2023-04-01T13:13:10.898Z,9.39
2023-04-01T13:15:47.640Z,9.39
2023-04-01T13:18:29.319Z,9.36
2023-04-01T13:21:10.066Z,9.32
2023-04-01T13:23:59.091Z,9.35
2023-04-01T13:26:35.084Z,9.37
2023-04-01T13:29:14.030Z,9.33
2023-04-01T13:31:57.848Z,9.28
2023-04-01T13:34:53.776Z,9.25
2023-04-01T13:37:37.920Z,9.23
2023-04-01T13:40:25.790Z,9.25
2023-04-01T13:43:04.205Z,9.25
2023-04-01T13:45:45.098Z,9.26
2023-04-01T13:48:39.440Z,9.17
2023-04-01T13:51:30.623Z,9.16
2023-04-01T13:54:31.182Z,9.16
2023-04-01T13:57:18.766Z,9.04
2023-04-01T14:00:06.505Z,9.05
2023-04-01T14:02:56.089Z,9.00
2023-04-01T14:05:48.725Z,9.00
2023-04-01T14:08:40.025Z,8.99
2023-04-01T14:11:20.694Z,8.98
2023-04-01T14:14:00.642Z,9.03
2023-04-01T14:16:49.199Z,9.02
2023-04-01T14:19:33.245Z,9.04
2023-04-01T14:22:17.326Z,9.00
2023-04-01T14:25:07.311Z,8.99
2023-04-01T14:27:57.896Z,8.94
2023-04-01T14:30:44.088Z,8.91
2023-04-01T14:33:27.840Z,8.84
2023-04-01T14:36:12.356Z,8.79
2023-04-01T14:38:58.941Z,8.79
2023-04-01T14:41:46.690Z,8.75
2023-04-01T14:44:46.630Z,8.70
2023-04-01T14:47:32.591Z,8.61
2023-04-01T14:50:10.823Z,8.54
2023-04-01T14:52:44.261Z,8.49
2023-04-01T14:55:36.804Z,8.46
2023-04-01T14:58:17.454Z,8.38
2023-04-01T15:01:03.208Z,8.34
2023-04-01T15:03:36.547Z,8.25
2023-04-01T15:06:36.537Z,8.17
2023-04-01T15:09:15.771Z,8.14
2023-04-01T15:11:58.789Z,8.12
2023-04-01T15:14:58.438Z,8.11
2023-04-01T15:17:47.011Z,8.08
2023-04-01T15:20:37.508Z,8.03
2023-04-01T15:23:21.063Z,8.05
2023-04-01T15:26:13.205Z,8.05
2023-04-01T15:28:55.113Z,8.04
2023-04-01T15:31:30.064Z,8.05
2023-04-01T15:34:27.145Z,8.03
2023-04-01T15:37:04.041Z,7.99
2023-04-01T15:39:46.181Z,7.98
2023-04-01T15:42:26.151Z,7.96
2023-04-01T15:45:11.330Z,7.95
2023-04-01T15:47:45.347Z,7.92
2023-04-01T15:50:42.816Z,7.86
2023-04-01T15:53:27.536Z,7.81
2023-04-01T15:56:03.355Z,7.76
2023-04-01T15:58:52.116Z,7.78
2023-04-01T16:01:31.410Z,7.76
2023-04-01T16:04:20.069Z,7.70
2023-04-01T16:07:11.609Z,7.65
2023-04-01T16:09:59.881Z,7.57
2023-04-01T16:12:45.077Z,7.53
2023-04-01T16:15:27.284Z,7.48
2023-04-01T16:18:19.901Z,7.52
2023-04-01T16:20:56.762Z,7.52
2023-04-01T16:23:38.947Z,7.50
2023-04-01T16:26:16.933Z,7.54
2023-04-01T16:28:57.162Z,7.50
2023-04-01T16:31:42.269Z,7.42
2023-04-01T16:34:19.484Z,7.41
2023-04-01T16:36:55.546Z,7.36
2023-04-01T16:39:42.351Z,7.32
2023-04-01T16:42:29.128Z,7.32
2023-04-01T16:45:09.078Z,7.30
2023-04-01T16:47:44.285Z,7.32
2023-04-01T16:50:23.115Z,7.28
2023-04-01T16:53:02.371Z,7.25
2023-04-01T16:55:54.295Z,7.24
2023-04-01T16:58:29.812Z,7.21
2023-04-01T17:01:05.780Z,7.19
2023-04-01T17:03:44.457Z,7.16
2023-04-01T17:06:32.027Z,7.10
2023-04-01T17:09:16.856Z,7.03
2023-04-01T17:11:57.627Z,7.04
2023-04-01T17:14:34.595Z,7.01
2023-04-01T17:17:21.287Z,7.00
2023-04-01T17:20:10.425Z,6.97
2023-04-01T17:22:48.739Z,6.94
2023-04-01T17:25:36.375Z,6.88
2023-04-01T17:28:22.024Z,6.88
2023-04-01T17:31:01.751Z,6.85
2023-04-01T17:33:47.200Z,6.88
2023-04-01T17:36:30.652Z,6.86
2023-04-01T17:39:30.445Z,6.87
2023-04-01T17:42:10.091Z,6.85
2023-04-01T17:44:54.298Z,6.86
2023-04-01T17:47:42.886Z,6.84
2023-04-01T17:50:30.899Z,6.83
2023-04-01T17:53:18.253Z,6.82
2023-04-01T17:56:07.197Z,6.83
2023-04-01T17:58:44.853Z,6.83
2023-04-01T18:01:36.941Z,6.82
2023-04-01T18:04:36.822Z,6.80
2023-04-01T18:07:46.956Z,6.77
2023-04-01T18:10:32.652Z,6.74
2023-04-01T18:13:35.248Z,6.72
2023-04-01T18:16:19.331Z,6.70
2023-04-01T18:19:03.507Z,6.68
2023-04-01T18:21:45.147Z,6.66
2023-04-01T18:24:22.524Z,6.60
2023-04-01T18:27:03.332Z,6.59
2023-04-01T18:29:43.162Z,6.56
2023-04-01T18:32:29.722Z,6.54
2023-04-01T18:35:21.687Z,6.53
2023-04-01T18:37:58.826Z,6.49
2023-04-01T18:40:36.493Z,6.51
2023-04-01T18:43:24.919Z,6.53
2023-04-01T18:46:03.599Z,6.51
2023-04-01T18:48:50.419Z,6.52
2023-04-01T18:51:28.478Z,6.48
2023-04-01T18:54:02.964Z,6.44
2023-04-01T18:56:38.016Z,6.43
2023-04-01T18:59:13.591Z,6.42
2023-04-01T19:01:52.870Z,6.39
2023-04-01T19:04:32.068Z,6.38
2023-04-01T19:07:40.875Z,6.35
2023-04-01T19:10:19.656Z,6.30
2023-04-01T19:12:58.567Z,6.30
2023-04-01T19:15:43.611Z,6.26
2023-04-01T19:18:40.905Z,6.26
2023-04-01T19:21:18.137Z,6.23
2023-04-01T19:24:23.161Z,6.24
2023-04-01T19:27:00.820Z,6.21
2023-04-01T19:29:47.116Z,6.18
2023-04-01T19:32:29.090Z,6.13
2023-04-01T19:35:11.152Z,6.11
2023-04-01T19:37:44.548Z,6.09
2023-04-01T19:40:47.607Z,6.11
2023-04-01T19:43:29.661Z,6.07
2023-04-01T19:46:06.307Z,6.05
2023-04-01T19:48:47.267Z,6.01
2023-04-01T19:51:26.779Z,5.95
2023-04-01T19:54:03.188Z,5.92
2023-04-01T19:56:45.401Z,5.91
2023-04-01T19:59:25.194Z,5.87
2023-04-01T20:02:03.367Z,5.84
2023-04-01T20:04:38.653Z,5.82
2023-04-01T20:07:13.191Z,5.85
2023-04-01T20:10:04.373Z,5.84
2023-04-01T20:12:50.024Z,5.83
2023-04-01T20:15:34.113Z,5.84
2023-04-01T20:18:07.166Z,5.86
2023-04-01T20:20:38.560Z,5.90
2023-04-01T20:23:25.187Z,5.89
2023-04-01T20:25:58.791Z,5.86
2023-04-01T20:28:37.581Z,5.84
2023-04-01T20:31:31.412Z,5.90
2023-04-01T20:34:30.440Z,5.87
2023-04-01T20:37:26.311Z,5.85
2023-04-01T20:40:24.371Z,5.78
2023-04-01T20:43:17.184Z,5.76
2023-04-01T20:45:58.769Z,5.75
2023-04-01T20:48:44.893Z,5.71
2023-04-01T20:51:18.334Z,5.67
2023-04-01T20:53:55.116Z,5.68
2023-04-01T20:56:51.694Z,5.68
2023-04-01T20:59:37.623Z,5.67
2023-04-01T21:02:36.500Z,5.69
2023-04-01T21:05:32.113Z,5.67
2023-04-01T21:08:11.876Z,5.64
2023-04-01T21:10:46.414Z,5.63
2023-04-01T21:13:35.036Z,5.64
2023-04-01T21:16:31.812Z,5.64
2023-04-01T21:19:22.801Z,5.60
2023-04-01T21:22:24.066Z,5.59
2023-04-01T21:25:07.811Z,5.52
2023-04-01T21:28:03.881Z,5.52
2023-04-01T21:30:45.206Z,5.52
2023-04-01T21:33:40.684Z,5.50
2023-04-01T21:36:27.472Z,5.48
2023-04-01T21:39:17.505Z,5.48
2023-04-01T21:42:02.737Z,5.46
2023-04-01T21:45:02.391Z,5.42
2023-04-01T21:48:12.707Z,5.42
2023-04-01T21:50:49.593Z,5.37
2023-04-01T21:53:58.349Z,5.35
2023-04-01T21:57:08.549Z,5.28
2023-04-01T22:00:06.657Z,5.27
2023-04-01T22:03:26.138Z,5.30
2023-04-01T22:06:07.016Z,5.25
2023-04-01T22:08:57.596Z,5.25
2023-04-01T22:11:40.374Z,5.24
2023-04-01T22:14:20.120Z,5.19
2023-04-01T22:16:55.201Z,5.16
2023-04-01T22:19:30.687Z,5.12
2023-04-01T22:22:05.687Z,5.05
2023-04-01T22:24:46.268Z,4.97
2023-04-01T22:27:29.007Z,4.93
2023-04-01T22:30:10.681Z,4.87
2023-04-01T22:32:47.479Z,4.83
2023-04-01T22:35:38.823Z,4.75
2023-04-01T22:38:23.472Z,4.71
2023-04-01T22:41:03.258Z,4.67
2023-04-01T22:43:41.090Z,4.63
2023-04-01T22:46:30.501Z,4.65
2023-04-01T22:49:06.346Z,4.61
2023-04-01T22:51:46.228Z,4.57
2023-04-01T22:54:23.644Z,4.54
2023-04-01T22:56:58.148Z,4.44
2023-04-01T22:59:39.023Z,4.36
2023-04-01T23:02:15.773Z,4.29
2023-04-01T23:04:47.696Z,4.27
2023-04-01T23:07:36.612Z,4.27
2023-04-01T23:10:10.060Z,4.25
2023-04-01T23:12:40.068Z,4.25
2023-04-01T23:15:17.516Z,4.26
2023-04-01T23:18:09.111Z,4.23
2023-04-01T23:20:57.947Z,4.17
2023-04-01T23:23:46.877Z,4.14
2023-04-01T23:26:22.522Z,4.10
2023-04-01T23:28:54.925Z,4.06
2023-04-01T23:31:39.533Z,4.00
2023-04-01T23:34:29.654Z,4.03
2023-04-01T23:37:01.922Z,4.01
2023-04-01T23:39:35.956Z,3.98
2023-04-01T23:42:09.026Z,3.95
2023-04-01T23:44:40.129Z,3.94
2023-04-01T23:47:19.817Z,3.92
2023-04-01T23:49:52.182Z,3.93
2023-04-01T23:52:27.699Z,3.91
2023-04-01T23:55:03.119Z,3.91
2023-04-01T23:57:34.452Z,3.88
